sensor_id;sensor_type;location;lat;lon;timestamp;temperature;humidity
8820;DHT22;4446;50.876;4.736;2022-11-09T00:00:03;14.20;99.90
8820;DHT22;4446;50.876;4.736;2022-11-09T00:02:31;14.10;99.90
8820;DHT22;4446;50.876;4.736;2022-11-09T00:04:59;14.10;99.90
8820;DHT22;4446;50.876;4.736;2022-11-09T00:07:29;14.10;99.90
8820;DHT22;4446;50.876;4.736;2022-11-09T00:09:57;14.10;99.90
8820;DHT22;4446;50.876;4.736;2022-11-09T00:12:24;14.10;99.90
8820;DHT22;4446;50.876;4.736;2022-11-09T00:14:51;14.20;99.90
8820;DHT22;4446;50.876;4.736;2022-11-09T00:17:18;14.30;99.90
8820;DHT22;4446;50.876;4.736;2022-11-09T00:19:45;14.30;99.90
8820;DHT22;4446;50.876;4.736;2022-11-09T00:22:13;14.20;99.90
8820;DHT22;4446;50.876;4.736;2022-11-09T00:24:40;14.10;99.90
8820;DHT22;4446;50.876;4.736;2022-11-09T00:27:07;14.00;99.90
8820;DHT22;4446;50.876;4.736;2022-11-09T00:29:34;14.00;99.90
8820;DHT22;4446;50.876;4.736;2022-11-09T00:32:02;13.90;99.90
8820;DHT22;4446;50.876;4.736;2022-11-09T00:34:30;14.00;99.90
8820;DHT22;4446;50.876;4.736;2022-11-09T00:36:57;14.00;99.90
8820;DHT22;4446;50.876;4.736;2022-11-09T00:39:25;14.10;99.90
8820;DHT22;4446;50.876;4.736;2022-11-09T00:41:52;14.10;99.90
8820;DHT22;4446;50.876;4.736;2022-11-09T00:44:20;14.00;99.90
8820;DHT22;4446;50.876;4.736;2022-11-09T00:46:47;14.00;99.90
8820;DHT22;4446;50.876;4.736;2022-11-09T00:49:15;14.00;99.90
8820;DHT22;4446;50.876;4.736;2022-11-09T00:51:42;14.00;99.90
8820;DHT22;4446;50.876;4.736;2022-11-09T00:54:09;13.90;99.90
8820;DHT22;4446;50.876;4.736;2022-11-09T00:56:37;13.90;99.90
8820;DHT22;4446;50.876;4.736;2022-11-09T00:59:04;13.80;99.90
8820;DHT22;4446;50.876;4.736;2022-11-09T01:01:32;13.80;99.90
8820;DHT22;4446;50.876;4.736;2022-11-09T01:03:59;13.70;99.90
8820;DHT22;4446;50.876;4.736;2022-11-09T01:06:26;13.60;99.90
8820;DHT22;4446;50.876;4.736;2022-11-09T01:08:54;13.50;99.90
8820;DHT22;4446;50.876;4.736;2022-11-09T01:11:21;13.60;99.90
8820;DHT22;4446;50.876;4.736;2022-11-09T01:13:50;13.60;99.90
8820;DHT22;4446;50.876;4.736;2022-11-09T01:16:20;13.60;99.90
8820;DHT22;4446;50.876;4.736;2022-11-09T01:18:50;13.60;99.90
8820;DHT22;4446;50.876;4.736;2022-11-09T01:21:18;13.50;99.90
8820;DHT22;4446;50.876;4.736;2022-11-09T01:23:45;13.50;99.90
8820;DHT22;4446;50.876;4.736;2022-11-09T01:26:13;13.40;99.90
8820;DHT22;4446;50.876;4.736;2022-11-09T01:28:41;13.40;99.90
8820;DHT22;4446;50.876;4.736;2022-11-09T01:31:12;13.30;99.90
8820;DHT22;4446;50.876;4.736;2022-11-09T01:33:39;13.30;99.90
8820;DHT22;4446;50.876;4.736;2022-11-09T01:36:08;13.30;99.90
8820;DHT22;4446;50.876;4.736;2022-11-09T01:38:36;13.20;99.90
8820;DHT22;4446;50.876;4.736;2022-11-09T01:41:04;13.10;99.90
8820;DHT22;4446;50.876;4.736;2022-11-09T01:43:32;13.10;99.90
8820;DHT22;4446;50.876;4.736;2022-11-09T01:46:04;13.10;99.90
8820;DHT22;4446;50.876;4.736;2022-11-09T01:48:36;13.30;99.90
8820;DHT22;4446;50.876;4.736;2022-11-09T01:51:08;13.40;99.90
8820;DHT22;4446;50.876;4.736;2022-11-09T01:53:39;13.40;99.90
8820;DHT22;4446;50.876;4.736;2022-11-09T01:56:10;13.40;99.90
8820;DHT22;4446;50.876;4.736;2022-11-09T01:58:42;13.40;99.90
8820;DHT22;4446;50.876;4.736;2022-11-09T02:01:11;13.40;99.90
8820;DHT22;4446;50.876;4.736;2022-11-09T02:03:43;13.40;99.90
8820;DHT22;4446;50.876;4.736;2022-11-09T02:06:13;13.50;99.90
8820;DHT22;4446;50.876;4.736;2022-11-09T02:08:43;13.60;99.90
8820;DHT22;4446;50.876;4.736;2022-11-09T02:11:13;13.60;99.90
8820;DHT22;4446;50.876;4.736;2022-11-09T02:13:43;13.60;99.90
8820;DHT22;4446;50.876;4.736;2022-11-09T02:16:12;13.60;99.90
8820;DHT22;4446;50.876;4.736;2022-11-09T02:18:48;13.60;99.90
8820;DHT22;4446;50.876;4.736;2022-11-09T02:21:17;13.60;99.90
8820;DHT22;4446;50.876;4.736;2022-11-09T02:23:45;13.60;99.90
8820;DHT22;4446;50.876;4.736;2022-11-09T02:26:15;13.60;99.90
8820;DHT22;4446;50.876;4.736;2022-11-09T02:28:45;13.60;99.90
8820;DHT22;4446;50.876;4.736;2022-11-09T02:31:14;13.60;99.90
8820;DHT22;4446;50.876;4.736;2022-11-09T02:33:51;13.60;99.90
8820;DHT22;4446;50.876;4.736;2022-11-09T02:36:20;13.60;99.90
8820;DHT22;4446;50.876;4.736;2022-11-09T02:38:48;13.60;99.90
8820;DHT22;4446;50.876;4.736;2022-11-09T02:41:15;13.50;99.90
8820;DHT22;4446;50.876;4.736;2022-11-09T02:43:43;13.30;99.90
8820;DHT22;4446;50.876;4.736;2022-11-09T02:46:10;13.30;99.90
8820;DHT22;4446;50.876;4.736;2022-11-09T02:48:37;13.20;99.90
8820;DHT22;4446;50.876;4.736;2022-11-09T02:51:04;13.00;99.90
8820;DHT22;4446;50.876;4.736;2022-11-09T02:53:33;12.90;99.90
8820;DHT22;4446;50.876;4.736;2022-11-09T02:56:00;12.80;99.90
8820;DHT22;4446;50.876;4.736;2022-11-09T02:58:27;12.70;99.90
8820;DHT22;4446;50.876;4.736;2022-11-09T03:00:54;12.60;99.90
8820;DHT22;4446;50.876;4.736;2022-11-09T03:03:21;12.50;99.90
8820;DHT22;4446;50.876;4.736;2022-11-09T03:05:48;12.40;99.90
8820;DHT22;4446;50.876;4.736;2022-11-09T03:08:15;12.40;99.90
8820;DHT22;4446;50.876;4.736;2022-11-09T03:10:43;12.40;99.90
8820;DHT22;4446;50.876;4.736;2022-11-09T03:13:10;12.30;99.90
8820;DHT22;4446;50.876;4.736;2022-11-09T03:15:37;12.30;99.90
8820;DHT22;4446;50.876;4.736;2022-11-09T03:18:05;12.20;99.90
8820;DHT22;4446;50.876;4.736;2022-11-09T03:20:32;12.20;99.90
8820;DHT22;4446;50.876;4.736;2022-11-09T03:22:59;12.10;99.90
8820;DHT22;4446;50.876;4.736;2022-11-09T03:25:27;12.00;99.90
8820;DHT22;4446;50.876;4.736;2022-11-09T03:27:59;12.00;99.90
8820;DHT22;4446;50.876;4.736;2022-11-09T03:30:26;12.00;99.90
8820;DHT22;4446;50.876;4.736;2022-11-09T03:32:57;12.00;99.90
8820;DHT22;4446;50.876;4.736;2022-11-09T03:35:24;12.00;99.90
8820;DHT22;4446;50.876;4.736;2022-11-09T03:37:52;12.10;99.90
8820;DHT22;4446;50.876;4.736;2022-11-09T03:40:19;12.10;99.90
8820;DHT22;4446;50.876;4.736;2022-11-09T03:42:47;12.10;99.90
8820;DHT22;4446;50.876;4.736;2022-11-09T03:45:18;12.00;99.90
8820;DHT22;4446;50.876;4.736;2022-11-09T03:47:47;11.80;99.90
8820;DHT22;4446;50.876;4.736;2022-11-09T03:50:18;11.80;99.90
8820;DHT22;4446;50.876;4.736;2022-11-09T03:52:48;11.90;99.90
8820;DHT22;4446;50.876;4.736;2022-11-09T03:55:19;11.80;99.90
8820;DHT22;4446;50.876;4.736;2022-11-09T03:57:49;11.80;99.90
8820;DHT22;4446;50.876;4.736;2022-11-09T04:00:21;11.90;99.90
8820;DHT22;4446;50.876;4.736;2022-11-09T04:02:51;11.90;99.90
8820;DHT22;4446;50.876;4.736;2022-11-09T04:05:19;12.00;99.90
8820;DHT22;4446;50.876;4.736;2022-11-09T04:07:47;12.10;99.90
8820;DHT22;4446;50.876;4.736;2022-11-09T04:10:15;12.10;99.90
8820;DHT22;4446;50.876;4.736;2022-11-09T04:12:42;12.20;99.90
8820;DHT22;4446;50.876;4.736;2022-11-09T04:15:10;12.20;99.90
8820;DHT22;4446;50.876;4.736;2022-11-09T04:17:39;12.20;99.90
8820;DHT22;4446;50.876;4.736;2022-11-09T04:20:07;12.20;99.90
8820;DHT22;4446;50.876;4.736;2022-11-09T04:22:34;12.20;99.90
8820;DHT22;4446;50.876;4.736;2022-11-09T04:25:02;12.10;99.90
8820;DHT22;4446;50.876;4.736;2022-11-09T04:27:29;12.00;99.90
8820;DHT22;4446;50.876;4.736;2022-11-09T04:29:56;12.00;99.90
8820;DHT22;4446;50.876;4.736;2022-11-09T04:32:23;12.10;99.90
8820;DHT22;4446;50.876;4.736;2022-11-09T04:34:52;12.10;99.90
8820;DHT22;4446;50.876;4.736;2022-11-09T04:37:19;12.00;99.90
8820;DHT22;4446;50.876;4.736;2022-11-09T04:39:46;11.90;99.90
8820;DHT22;4446;50.876;4.736;2022-11-09T04:42:13;11.80;99.90
8820;DHT22;4446;50.876;4.736;2022-11-09T04:44:40;11.80;99.90
8820;DHT22;4446;50.876;4.736;2022-11-09T04:47:07;11.70;99.90
8820;DHT22;4446;50.876;4.736;2022-11-09T04:49:34;11.60;99.90
8820;DHT22;4446;50.876;4.736;2022-11-09T04:52:02;11.60;99.90
8820;DHT22;4446;50.876;4.736;2022-11-09T04:54:29;11.70;99.90
8820;DHT22;4446;50.876;4.736;2022-11-09T04:56:56;11.60;99.90
8820;DHT22;4446;50.876;4.736;2022-11-09T04:59:24;11.60;99.90
8820;DHT22;4446;50.876;4.736;2022-11-09T05:01:51;11.70;99.90
8820;DHT22;4446;50.876;4.736;2022-11-09T05:04:18;11.70;99.90
8820;DHT22;4446;50.876;4.736;2022-11-09T05:06:45;11.60;99.90
8820;DHT22;4446;50.876;4.736;2022-11-09T05:09:13;11.70;99.90
8820;DHT22;4446;50.876;4.736;2022-11-09T05:11:40;11.60;99.90
8820;DHT22;4446;50.876;4.736;2022-11-09T05:14:07;11.60;99.90
8820;DHT22;4446;50.876;4.736;2022-11-09T05:16:34;11.70;99.90
8820;DHT22;4446;50.876;4.736;2022-11-09T05:19:01;11.60;99.90
8820;DHT22;4446;50.876;4.736;2022-11-09T05:21:28;11.60;99.90
8820;DHT22;4446;50.876;4.736;2022-11-09T05:23:55;11.60;99.90
8820;DHT22;4446;50.876;4.736;2022-11-09T05:26:27;11.60;99.90
8820;DHT22;4446;50.876;4.736;2022-11-09T05:28:54;11.50;99.90
8820;DHT22;4446;50.876;4.736;2022-11-09T05:31:22;11.50;99.90
8820;DHT22;4446;50.876;4.736;2022-11-09T05:33:49;11.50;99.90
8820;DHT22;4446;50.876;4.736;2022-11-09T05:36:17;11.60;99.90
8820;DHT22;4446;50.876;4.736;2022-11-09T05:38:45;11.70;99.90
8820;DHT22;4446;50.876;4.736;2022-11-09T05:41:12;11.60;99.90
8820;DHT22;4446;50.876;4.736;2022-11-09T05:43:40;11.50;99.90
8820;DHT22;4446;50.876;4.736;2022-11-09T05:46:09;11.50;99.90
8820;DHT22;4446;50.876;4.736;2022-11-09T05:48:36;11.50;99.90
8820;DHT22;4446;50.876;4.736;2022-11-09T05:51:04;11.40;99.90
8820;DHT22;4446;50.876;4.736;2022-11-09T05:53:31;11.30;99.90
8820;DHT22;4446;50.876;4.736;2022-11-09T05:56:01;11.30;99.90
8820;DHT22;4446;50.876;4.736;2022-11-09T05:58:29;11.20;99.90
8820;DHT22;4446;50.876;4.736;2022-11-09T06:00:59;11.20;99.90
8820;DHT22;4446;50.876;4.736;2022-11-09T06:03:26;11.30;99.90
8820;DHT22;4446;50.876;4.736;2022-11-09T06:05:59;11.20;99.90
8820;DHT22;4446;50.876;4.736;2022-11-09T06:08:28;11.20;99.90
8820;DHT22;4446;50.876;4.736;2022-11-09T06:10:59;11.20;99.90
8820;DHT22;4446;50.876;4.736;2022-11-09T06:13:27;11.10;99.90
8820;DHT22;4446;50.876;4.736;2022-11-09T06:15:54;11.10;99.90
8820;DHT22;4446;50.876;4.736;2022-11-09T06:18:24;11.20;99.90
8820;DHT22;4446;50.876;4.736;2022-11-09T06:20:51;11.20;99.90
8820;DHT22;4446;50.876;4.736;2022-11-09T06:23:19;11.20;99.90
8820;DHT22;4446;50.876;4.736;2022-11-09T06:25:51;11.20;99.90
8820;DHT22;4446;50.876;4.736;2022-11-09T06:28:19;11.10;99.90
8820;DHT22;4446;50.876;4.736;2022-11-09T06:30:46;11.10;99.90
8820;DHT22;4446;50.876;4.736;2022-11-09T06:33:13;11.10;99.90
8820;DHT22;4446;50.876;4.736;2022-11-09T06:35:42;11.20;99.90
8820;DHT22;4446;50.876;4.736;2022-11-09T06:38:10;11.20;99.90
8820;DHT22;4446;50.876;4.736;2022-11-09T06:40:37;11.20;99.90
8820;DHT22;4446;50.876;4.736;2022-11-09T06:43:05;11.20;99.90
8820;DHT22;4446;50.876;4.736;2022-11-09T06:45:32;11.10;99.90
8820;DHT22;4446;50.876;4.736;2022-11-09T06:48:01;11.10;99.90
8820;DHT22;4446;50.876;4.736;2022-11-09T06:50:30;11.10;99.90
8820;DHT22;4446;50.876;4.736;2022-11-09T06:53:01;11.10;99.90
8820;DHT22;4446;50.876;4.736;2022-11-09T06:55:30;11.00;99.90
8820;DHT22;4446;50.876;4.736;2022-11-09T06:57:57;11.10;99.90
8820;DHT22;4446;50.876;4.736;2022-11-09T07:00:26;11.00;99.90
8820;DHT22;4446;50.876;4.736;2022-11-09T07:02:53;11.00;99.90
8820;DHT22;4446;50.876;4.736;2022-11-09T07:05:20;11.00;99.90
8820;DHT22;4446;50.876;4.736;2022-11-09T07:07:47;11.00;99.90
8820;DHT22;4446;50.876;4.736;2022-11-09T07:10:24;11.00;99.90
8820;DHT22;4446;50.876;4.736;2022-11-09T07:12:51;11.00;99.90
8820;DHT22;4446;50.876;4.736;2022-11-09T07:15:18;11.00;99.90
8820;DHT22;4446;50.876;4.736;2022-11-09T07:17:45;11.00;99.90
8820;DHT22;4446;50.876;4.736;2022-11-09T07:20:12;11.00;99.90
8820;DHT22;4446;50.876;4.736;2022-11-09T07:22:39;11.10;99.90
8820;DHT22;4446;50.876;4.736;2022-11-09T07:25:08;11.10;99.90
8820;DHT22;4446;50.876;4.736;2022-11-09T07:27:37;11.20;99.90
8820;DHT22;4446;50.876;4.736;2022-11-09T07:30:06;11.30;99.90
8820;DHT22;4446;50.876;4.736;2022-11-09T07:32:34;11.30;99.90
8820;DHT22;4446;50.876;4.736;2022-11-09T07:35:01;11.30;99.90
8820;DHT22;4446;50.876;4.736;2022-11-09T07:37:29;11.30;99.90
8820;DHT22;4446;50.876;4.736;2022-11-09T07:39:56;11.40;99.90
8820;DHT22;4446;50.876;4.736;2022-11-09T07:42:23;11.40;99.90
8820;DHT22;4446;50.876;4.736;2022-11-09T07:44:52;11.30;99.90
8820;DHT22;4446;50.876;4.736;2022-11-09T07:47:19;11.40;99.90
8820;DHT22;4446;50.876;4.736;2022-11-09T07:49:46;11.40;99.90
8820;DHT22;4446;50.876;4.736;2022-11-09T07:52:14;11.40;99.90
8820;DHT22;4446;50.876;4.736;2022-11-09T07:54:41;11.40;99.90
8820;DHT22;4446;50.876;4.736;2022-11-09T07:57:08;11.40;99.90
8820;DHT22;4446;50.876;4.736;2022-11-09T07:59:35;11.50;99.90
8820;DHT22;4446;50.876;4.736;2022-11-09T08:02:03;11.50;99.90
8820;DHT22;4446;50.876;4.736;2022-11-09T08:04:30;11.50;99.90
8820;DHT22;4446;50.876;4.736;2022-11-09T08:06:57;11.60;99.90
8820;DHT22;4446;50.876;4.736;2022-11-09T08:09:24;11.70;99.90
8820;DHT22;4446;50.876;4.736;2022-11-09T08:11:51;11.70;99.90
8820;DHT22;4446;50.876;4.736;2022-11-09T08:14:18;11.70;99.90
8820;DHT22;4446;50.876;4.736;2022-11-09T08:16:45;11.70;99.90
8820;DHT22;4446;50.876;4.736;2022-11-09T08:19:14;11.70;99.90
8820;DHT22;4446;50.876;4.736;2022-11-09T08:21:41;11.80;99.90
8820;DHT22;4446;50.876;4.736;2022-11-09T08:24:08;11.90;99.90
8820;DHT22;4446;50.876;4.736;2022-11-09T08:26:36;11.90;99.90
8820;DHT22;4446;50.876;4.736;2022-11-09T08:29:03;12.00;99.90
8820;DHT22;4446;50.876;4.736;2022-11-09T08:31:30;12.00;99.90
8820;DHT22;4446;50.876;4.736;2022-11-09T08:33:57;12.00;99.90
8820;DHT22;4446;50.876;4.736;2022-11-09T08:36:25;12.00;99.90
8820;DHT22;4446;50.876;4.736;2022-11-09T08:38:55;12.10;99.90
8820;DHT22;4446;50.876;4.736;2022-11-09T08:41:24;12.10;99.90
8820;DHT22;4446;50.876;4.736;2022-11-09T08:43:51;12.20;99.90
8820;DHT22;4446;50.876;4.736;2022-11-09T08:46:18;12.20;99.90
8820;DHT22;4446;50.876;4.736;2022-11-09T08:48:45;12.40;99.90
8820;DHT22;4446;50.876;4.736;2022-11-09T08:51:12;12.40;99.90
8820;DHT22;4446;50.876;4.736;2022-11-09T08:53:40;12.40;99.90
8820;DHT22;4446;50.876;4.736;2022-11-09T08:56:08;12.50;99.90
8820;DHT22;4446;50.876;4.736;2022-11-09T08:58:37;12.60;99.90
8820;DHT22;4446;50.876;4.736;2022-11-09T09:01:06;12.60;99.90
8820;DHT22;4446;50.876;4.736;2022-11-09T09:03:33;12.70;99.90
8820;DHT22;4446;50.876;4.736;2022-11-09T09:06:02;12.70;99.90
8820;DHT22;4446;50.876;4.736;2022-11-09T09:08:29;12.80;99.90
8820;DHT22;4446;50.876;4.736;2022-11-09T09:11:00;12.80;99.90
8820;DHT22;4446;50.876;4.736;2022-11-09T09:13:28;12.80;99.90
8820;DHT22;4446;50.876;4.736;2022-11-09T09:15:55;12.80;99.90
8820;DHT22;4446;50.876;4.736;2022-11-09T09:18:22;12.90;99.90
8820;DHT22;4446;50.876;4.736;2022-11-09T09:20:49;12.90;99.90
8820;DHT22;4446;50.876;4.736;2022-11-09T09:23:16;12.90;99.90
8820;DHT22;4446;50.876;4.736;2022-11-09T09:25:43;12.90;99.90
8820;DHT22;4446;50.876;4.736;2022-11-09T09:28:12;12.90;99.90
8820;DHT22;4446;50.876;4.736;2022-11-09T09:30:39;12.90;99.90
8820;DHT22;4446;50.876;4.736;2022-11-09T09:33:06;13.00;99.90
8820;DHT22;4446;50.876;4.736;2022-11-09T09:35:33;13.00;99.90
8820;DHT22;4446;50.876;4.736;2022-11-09T09:38:00;13.00;99.90
8820;DHT22;4446;50.876;4.736;2022-11-09T09:40:32;13.00;99.90
8820;DHT22;4446;50.876;4.736;2022-11-09T09:43:00;13.10;99.90
8820;DHT22;4446;50.876;4.736;2022-11-09T09:45:31;13.10;99.90
8820;DHT22;4446;50.876;4.736;2022-11-09T09:48:03;13.20;99.90
8820;DHT22;4446;50.876;4.736;2022-11-09T09:50:35;13.30;99.90
8820;DHT22;4446;50.876;4.736;2022-11-09T09:53:13;13.30;99.90
8820;DHT22;4446;50.876;4.736;2022-11-09T09:55:42;13.40;99.90
8820;DHT22;4446;50.876;4.736;2022-11-09T09:58:12;13.40;99.90
8820;DHT22;4446;50.876;4.736;2022-11-09T10:00:41;13.40;99.90
8820;DHT22;4446;50.876;4.736;2022-11-09T10:03:14;13.50;99.90
8820;DHT22;4446;50.876;4.736;2022-11-09T10:05:47;13.60;99.90
8820;DHT22;4446;50.876;4.736;2022-11-09T10:08:26;13.60;99.90
8820;DHT22;4446;50.876;4.736;2022-11-09T10:11:08;13.60;99.90
8820;DHT22;4446;50.876;4.736;2022-11-09T10:16:50;13.80;99.90
8820;DHT22;4446;50.876;4.736;2022-11-09T10:19:29;13.90;99.90
8820;DHT22;4446;50.876;4.736;2022-11-09T10:22:04;14.00;99.90
8820;DHT22;4446;50.876;4.736;2022-11-09T10:24:39;14.20;99.90
8820;DHT22;4446;50.876;4.736;2022-11-09T10:27:21;14.30;99.90
8820;DHT22;4446;50.876;4.736;2022-11-09T10:29:50;14.40;99.90
8820;DHT22;4446;50.876;4.736;2022-11-09T10:32:20;14.50;99.90
8820;DHT22;4446;50.876;4.736;2022-11-09T10:34:52;14.40;99.90
8820;DHT22;4446;50.876;4.736;2022-11-09T10:37:24;14.50;99.90
8820;DHT22;4446;50.876;4.736;2022-11-09T10:39:56;14.60;99.90
8820;DHT22;4446;50.876;4.736;2022-11-09T10:42:24;14.70;99.90
8820;DHT22;4446;50.876;4.736;2022-11-09T10:44:51;14.80;99.90
8820;DHT22;4446;50.876;4.736;2022-11-09T10:47:19;14.90;99.90
8820;DHT22;4446;50.876;4.736;2022-11-09T10:50:07;14.80;99.90
8820;DHT22;4446;50.876;4.736;2022-11-09T10:52:35;14.90;99.90
8820;DHT22;4446;50.876;4.736;2022-11-09T10:55:20;14.80;99.90
8820;DHT22;4446;50.876;4.736;2022-11-09T10:57:57;14.80;99.90
8820;DHT22;4446;50.876;4.736;2022-11-09T11:00:25;14.80;99.90
8820;DHT22;4446;50.876;4.736;2022-11-09T11:02:54;14.70;99.90
8820;DHT22;4446;50.876;4.736;2022-11-09T11:05:30;14.70;99.90
8820;DHT22;4446;50.876;4.736;2022-11-09T11:08:11;14.80;99.90
8820;DHT22;4446;50.876;4.736;2022-11-09T11:10:45;14.90;99.90
8820;DHT22;4446;50.876;4.736;2022-11-09T11:13:21;15.10;99.90
8820;DHT22;4446;50.876;4.736;2022-11-09T11:15:49;15.20;99.90
8820;DHT22;4446;50.876;4.736;2022-11-09T11:18:20;15.10;99.90
8820;DHT22;4446;50.876;4.736;2022-11-09T11:21:04;15.00;99.90
8820;DHT22;4446;50.876;4.736;2022-11-09T11:23:32;14.90;99.90
8820;DHT22;4446;50.876;4.736;2022-11-09T11:26:23;14.80;99.90
8820;DHT22;4446;50.876;4.736;2022-11-09T11:28:56;14.70;99.90
8820;DHT22;4446;50.876;4.736;2022-11-09T11:31:24;14.70;99.90
8820;DHT22;4446;50.876;4.736;2022-11-09T11:33:52;14.70;99.90
8820;DHT22;4446;50.876;4.736;2022-11-09T11:36:26;14.80;99.90
8820;DHT22;4446;50.876;4.736;2022-11-09T11:38:59;14.90;99.90
8820;DHT22;4446;50.876;4.736;2022-11-09T11:41:47;14.90;99.90
8820;DHT22;4446;50.876;4.736;2022-11-09T11:44:34;14.70;99.90
8820;DHT22;4446;50.876;4.736;2022-11-09T11:47:11;14.80;99.90
8820;DHT22;4446;50.876;4.736;2022-11-09T11:50:05;14.60;99.90
8820;DHT22;4446;50.876;4.736;2022-11-09T11:52:48;14.50;99.90
8820;DHT22;4446;50.876;4.736;2022-11-09T11:55:36;14.00;99.90
8820;DHT22;4446;50.876;4.736;2022-11-09T11:58:24;13.60;99.90
8820;DHT22;4446;50.876;4.736;2022-11-09T12:01:00;13.30;99.90
8820;DHT22;4446;50.876;4.736;2022-11-09T12:03:46;13.10;99.90
8820;DHT22;4446;50.876;4.736;2022-11-09T12:06:44;13.00;99.90
8820;DHT22;4446;50.876;4.736;2022-11-09T12:09:26;13.00;99.90
8820;DHT22;4446;50.876;4.736;2022-11-09T12:12:11;13.00;99.90
8820;DHT22;4446;50.876;4.736;2022-11-09T12:14:54;13.00;99.90
8820;DHT22;4446;50.876;4.736;2022-11-09T12:17:27;13.10;99.90
8820;DHT22;4446;50.876;4.736;2022-11-09T12:20:20;13.20;99.90
8820;DHT22;4446;50.876;4.736;2022-11-09T12:22:56;13.20;99.90
8820;DHT22;4446;50.876;4.736;2022-11-09T12:25:30;13.30;99.90
8820;DHT22;4446;50.876;4.736;2022-11-09T12:28:22;13.30;99.90
8820;DHT22;4446;50.876;4.736;2022-11-09T12:31:00;13.40;99.90
8820;DHT22;4446;50.876;4.736;2022-11-09T12:33:40;13.40;99.90
8820;DHT22;4446;50.876;4.736;2022-11-09T12:36:14;13.40;99.90
8820;DHT22;4446;50.876;4.736;2022-11-09T12:38:53;13.40;99.90
8820;DHT22;4446;50.876;4.736;2022-11-09T12:41:26;13.50;99.90
8820;DHT22;4446;50.876;4.736;2022-11-09T12:44:03;13.60;99.90
8820;DHT22;4446;50.876;4.736;2022-11-09T12:46:33;13.60;99.90
8820;DHT22;4446;50.876;4.736;2022-11-09T12:49:04;13.60;99.90
8820;DHT22;4446;50.876;4.736;2022-11-09T12:51:32;13.50;99.90
8820;DHT22;4446;50.876;4.736;2022-11-09T12:54:05;13.40;99.90
8820;DHT22;4446;50.876;4.736;2022-11-09T12:56:44;13.20;99.90
8820;DHT22;4446;50.876;4.736;2022-11-09T12:59:32;13.10;99.90
8820;DHT22;4446;50.876;4.736;2022-11-09T13:02:00;12.70;99.90
8820;DHT22;4446;50.876;4.736;2022-11-09T13:04:29;12.40;99.90
8820;DHT22;4446;50.876;4.736;2022-11-09T13:07:18;12.20;99.90
8820;DHT22;4446;50.876;4.736;2022-11-09T13:09:53;12.10;99.90
8820;DHT22;4446;50.876;4.736;2022-11-09T13:12:34;12.00;99.90
8820;DHT22;4446;50.876;4.736;2022-11-09T13:15:21;11.80;99.90
8820;DHT22;4446;50.876;4.736;2022-11-09T13:18:00;11.70;99.90
8820;DHT22;4446;50.876;4.736;2022-11-09T13:20:41;11.70;99.90
8820;DHT22;4446;50.876;4.736;2022-11-09T13:23:32;11.60;99.90
8820;DHT22;4446;50.876;4.736;2022-11-09T13:26:02;11.60;99.90
8820;DHT22;4446;50.876;4.736;2022-11-09T13:28:41;11.60;99.90
8820;DHT22;4446;50.876;4.736;2022-11-09T13:31:10;11.50;99.90
8820;DHT22;4446;50.876;4.736;2022-11-09T13:33:37;11.50;99.90
8820;DHT22;4446;50.876;4.736;2022-11-09T13:36:17;11.50;99.90
8820;DHT22;4446;50.876;4.736;2022-11-09T13:41:43;11.60;99.90
8820;DHT22;4446;50.876;4.736;2022-11-09T13:44:25;11.80;99.90
8820;DHT22;4446;50.876;4.736;2022-11-09T13:46:55;11.90;99.90
8820;DHT22;4446;50.876;4.736;2022-11-09T13:49:44;11.90;99.90
8820;DHT22;4446;50.876;4.736;2022-11-09T13:52:44;12.10;99.90
8820;DHT22;4446;50.876;4.736;2022-11-09T13:55:22;12.20;99.90
8820;DHT22;4446;50.876;4.736;2022-11-09T13:57:51;12.30;99.90
8820;DHT22;4446;50.876;4.736;2022-11-09T14:00:21;12.30;99.90
8820;DHT22;4446;50.876;4.736;2022-11-09T14:02:57;12.30;99.90
8820;DHT22;4446;50.876;4.736;2022-11-09T14:05:28;12.40;99.90
8820;DHT22;4446;50.876;4.736;2022-11-09T14:07:58;12.40;99.90
8820;DHT22;4446;50.876;4.736;2022-11-09T14:11:08;12.40;99.90
8820;DHT22;4446;50.876;4.736;2022-11-09T14:14:02;12.40;99.90
8820;DHT22;4446;50.876;4.736;2022-11-09T14:16:40;12.40;99.90
8820;DHT22;4446;50.876;4.736;2022-11-09T14:19:19;12.40;99.90
8820;DHT22;4446;50.876;4.736;2022-11-09T14:21:49;12.30;99.90
8820;DHT22;4446;50.876;4.736;2022-11-09T14:24:19;12.20;99.90
8820;DHT22;4446;50.876;4.736;2022-11-09T14:27:11;12.20;99.90
8820;DHT22;4446;50.876;4.736;2022-11-09T14:29:51;12.20;99.90
8820;DHT22;4446;50.876;4.736;2022-11-09T14:32:28;12.30;99.90
8820;DHT22;4446;50.876;4.736;2022-11-09T14:35:18;12.30;99.90
8820;DHT22;4446;50.876;4.736;2022-11-09T14:37:46;12.20;99.90
8820;DHT22;4446;50.876;4.736;2022-11-09T14:40:18;12.20;99.90
8820;DHT22;4446;50.876;4.736;2022-11-09T14:42:51;12.30;99.90
8820;DHT22;4446;50.876;4.736;2022-11-09T14:45:21;12.30;99.90
8820;DHT22;4446;50.876;4.736;2022-11-09T14:47:50;12.30;99.90
8820;DHT22;4446;50.876;4.736;2022-11-09T14:50:21;12.30;99.90
8820;DHT22;4446;50.876;4.736;2022-11-09T14:52:49;12.20;99.90
8820;DHT22;4446;50.876;4.736;2022-11-09T14:55:19;12.10;99.90
8820;DHT22;4446;50.876;4.736;2022-11-09T14:57:47;12.00;99.90
8820;DHT22;4446;50.876;4.736;2022-11-09T15:00:26;12.00;99.90
8820;DHT22;4446;50.876;4.736;2022-11-09T15:02:54;11.90;99.90
8820;DHT22;4446;50.876;4.736;2022-11-09T15:05:34;11.90;99.90
8820;DHT22;4446;50.876;4.736;2022-11-09T15:08:09;11.90;99.90
8820;DHT22;4446;50.876;4.736;2022-11-09T15:10:40;11.80;99.90
8820;DHT22;4446;50.876;4.736;2022-11-09T15:13:07;11.80;99.90
8820;DHT22;4446;50.876;4.736;2022-11-09T15:15:36;11.80;99.90
8820;DHT22;4446;50.876;4.736;2022-11-09T15:18:13;11.80;99.90
8820;DHT22;4446;50.876;4.736;2022-11-09T15:20:40;11.70;99.90
8820;DHT22;4446;50.876;4.736;2022-11-09T15:23:22;11.70;99.90
8820;DHT22;4446;50.876;4.736;2022-11-09T15:25:54;11.70;99.90
8820;DHT22;4446;50.876;4.736;2022-11-09T15:28:24;11.70;99.90
8820;DHT22;4446;50.876;4.736;2022-11-09T15:31:20;11.60;99.90
8820;DHT22;4446;50.876;4.736;2022-11-09T15:33:53;11.70;99.90
8820;DHT22;4446;50.876;4.736;2022-11-09T15:36:25;11.60;99.90
8820;DHT22;4446;50.876;4.736;2022-11-09T15:39:11;11.50;99.90
8820;DHT22;4446;50.876;4.736;2022-11-09T15:41:42;11.40;99.90
8820;DHT22;4446;50.876;4.736;2022-11-09T15:44:12;11.40;99.90
8820;DHT22;4446;50.876;4.736;2022-11-09T15:46:44;11.30;99.90
8820;DHT22;4446;50.876;4.736;2022-11-09T15:49:15;11.20;99.90
8820;DHT22;4446;50.876;4.736;2022-11-09T15:51:43;11.20;99.90
8820;DHT22;4446;50.876;4.736;2022-11-09T15:54:10;11.10;99.90
8820;DHT22;4446;50.876;4.736;2022-11-09T15:56:38;11.00;99.90
8820;DHT22;4446;50.876;4.736;2022-11-09T15:59:06;11.00;99.90
8820;DHT22;4446;50.876;4.736;2022-11-09T16:01:33;10.90;99.90
8820;DHT22;4446;50.876;4.736;2022-11-09T16:04:02;10.80;99.90
8820;DHT22;4446;50.876;4.736;2022-11-09T16:06:29;10.60;99.90
8820;DHT22;4446;50.876;4.736;2022-11-09T16:08:56;10.60;99.90
8820;DHT22;4446;50.876;4.736;2022-11-09T16:11:23;10.40;99.90
8820;DHT22;4446;50.876;4.736;2022-11-09T16:13:50;10.40;99.90
8820;DHT22;4446;50.876;4.736;2022-11-09T16:16:17;10.30;99.90
8820;DHT22;4446;50.876;4.736;2022-11-09T16:18:45;10.20;99.90
8820;DHT22;4446;50.876;4.736;2022-11-09T16:21:15;10.10;99.90
8820;DHT22;4446;50.876;4.736;2022-11-09T16:23:42;10.10;99.90
8820;DHT22;4446;50.876;4.736;2022-11-09T16:26:14;10.00;99.90
8820;DHT22;4446;50.876;4.736;2022-11-09T16:28:42;9.90;99.90
8820;DHT22;4446;50.876;4.736;2022-11-09T16:31:10;9.80;99.90